Flight Track Log - Related Links

Times and Time Zones

All times are in EDT time to prevent confusion due to time zone crossing. See the DAL268 flight status page for this flight to view local times or setup timezone preferences in your user account.

Time Position Orientation Groundspeed Altitude Reporting Facility
EDT Latitude Longitude Course Direction KTS MPH feet Rate Location/Type
Sat 11:45:34 PM 40.6370 -73.7800 North  Level FlightAware ADS-B
Sat 11:46:52 PM 40.6370 -73.7790 90° East 11 13 54 Level FlightAware ADS-B
Sat 11:47:45 PM 40.6380 -73.7790 360° North 2 2 59 Level FlightAware ADS-B
Sat 11:48:08 PM 40.6370 -73.7790 180° South 12 14 62 Level FlightAware ADS-B
Sat 11:49:09 PM 40.6360 -73.7790 180° South 2 2 64 Level FlightAware ADS-B
Sat 11:51:00 PM 40.5368 -73.4770 114° Southeast  Level FlightAware Approximate
Sat 11:52:00 PM 40.4833 -73.3126 90° East  Level FlightAware Approximate
Sat 11:53:00 PM 40.4342 -73.1464 119° Southeast  Level FlightAware Approximate
Sat 11:54:00 PM 40.3833 -72.9819 90° East  Level FlightAware Approximate
Sat 11:54:41 PM 40.6350 -73.7780 90° East 17 20  Level FlightAware ADS-B
Sat 11:55:04 PM 40.6350 -73.7770 90° East 14 16 119 Level FlightAware ADS-B
Sat 11:55:31 PM 40.6360 -73.7760 37° Northeast 24 28 126 Level FlightAware ADS-B
Sat 11:55:59 PM 40.6370 -73.7760 360° North 28 32 134 Level FlightAware ADS-B
Sat 11:56:28 PM 40.6390 -73.7740 37° Northeast 32 37 144 Level FlightAware ADS-B
Sat 11:56:53 PM 40.6400 -73.7730 37° Northeast 15 17 156 Level FlightAware ADS-B
Sat 11:57:09 PM 40.6410 -73.7720 37° Northeast 16 18 168 Level FlightAware ADS-B
Sat 11:57:37 PM 40.6430 -73.7710 21° North 29 33 177 Level FlightAware ADS-B
Sat 11:58:03 PM 40.6440 -73.7700 37° Northeast 27 31 195 Level FlightAware ADS-B
Sat 11:58:32 PM 40.6450 -73.7690 37° Northeast 28 32 215 Level FlightAware ADS-B
Sat 11:59:00 PM 40.6470 -73.7690 360° North 29 33 243 Level FlightAware ADS-B
Sat 11:59:26 PM 40.6480 -73.7680 37° Northeast 29 33 278 Level FlightAware ADS-B
Sat 11:59:56 PM 40.6490 -73.7670 37° Northeast 22 25 321 Level FlightAware ADS-B
Sun 12:00:12 AM 40.6490 -73.7660 90° East 15 17 391 Level FlightAware ADS-B
Sun 12:00:46 AM 40.6490 -73.7650 90° East 22 25 443 Level FlightAware ADS-B
Sun 12:01:26 AM 40.6440 -73.7690 211° Southwest 86 99 614 Level FlightAware ADS-B
Sun 12:02:14 AM 40.6140 -73.7910 209° Southwest 160 184 900 1,342 Climbing FlightAware ADS-B
Sun 12:02:42 AM 40.5950 -73.8030 206° Southwest 170 196 1,700 1,350 Climbing FlightAware ADS-B
Sun 12:02:54 AM 40.5860 -73.8080 203° Southwest 184 212 1,800 783 Climbing FlightAware ADS-B
Sun 12:03:28 AM 40.5560 -73.7980 166° South 253 291 2,300 955 Climbing FlightAware ADS-B
Sun 12:03:38 AM 40.5490 -73.7850 125° Southeast 268 308 2,500 1,200 Climbing FlightAware ADS-B
Sun 12:04:08 AM 40.5340 -73.7370 112° Southeast 297 342 3,100 1,435 Climbing FlightAware ADS-B
Sun 12:04:24 AM 40.5250 -73.7120 115° Southeast 304 350 3,600 2,182 Climbing FlightAware ADS-B
Sun 12:04:52 AM 40.5080 -73.6610 114° Southeast 308 354 4,700 1,909 Climbing FlightAware ADS-B
Sun 12:05:08 AM 40.4975 -73.6318 115° Southeast 309 356 5,000 900 Climbing FlightAware ADS-B
Sun 12:05:12 AM 40.4957 -73.6247 108° East 310 357 5,000  Level FlightAware ADS-B
Sun 12:05:18 AM 40.4940 -73.6135 101° East 310 357 5,000  Level FlightAware ADS-B
Sun 12:05:21 AM 40.4937 -73.6079 94° East 311 358 5,000  Level FlightAware ADS-B
Sun 12:05:27 AM 40.4940 -73.5965 88° East 312 359 5,000  Level FlightAware ADS-B
Sun 12:05:31 AM 40.4950 -73.5890 80° East 313 360 5,000  Level FlightAware ADS-B
Sun 12:05:35 AM 40.4961 -73.5815 79° East 314 361 5,000  Level FlightAware ADS-B
Sun 12:05:52 AM 40.5021 -73.5517 75° East 315 362 5,000  Level FlightAware ADS-B
Sun 12:06:07 AM 40.5076 -73.5240 75° East 315 362 5,000 581 Level FlightAware ADS-B
Sun 12:06:23 AM 40.5131 -73.4941 76° East 316 364 5,300 1,742 Climbing FlightAware ADS-B
Sun 12:06:38 AM 40.5184 -73.4642 77° East 317 365 5,900 2,750 Climbing FlightAware ADS-B
Sun 12:06:47 AM 40.5213 -73.4473 77° East 319 367 6,400 2,769 Climbing FlightAware ADS-B
Sun 12:06:51 AM 40.5219 -73.4395 84° East 319 367 6,500 2,250 Climbing FlightAware ADS-B
Sun 12:06:55 AM 40.5219 -73.4317 90° East 320 368 6,700 2,400 Climbing FlightAware ADS-B
Sun 12:07:01 AM 40.5213 -73.4201 94° East 320 368 6,900 2,308 Climbing FlightAware ADS-B
Sun 12:07:08 AM 40.5198 -73.4068 98° East 320 368 7,200 2,625 Climbing FlightAware ADS-B
Sun 12:07:17 AM 40.5165 -73.3899 104° East 319 367 7,600 2,571 Climbing FlightAware ADS-B
Sun 12:07:22 AM 40.5144 -73.3826 111° Southeast 319 367 7,800 2,700 Climbing FlightAware ADS-B
Sun 12:07:37 AM 40.5055 -73.3537 112° Southeast 320 368 8,500 2,710 Climbing FlightAware ADS-B
Sun 12:07:53 AM 40.4965 -73.3248 112° Southeast 322 371 9,200 2,438 Climbing FlightAware ADS-B
Sun 12:08:09 AM 40.4876 -73.2959 112° Southeast 323 372 9,800 1,915 Climbing FlightAware ADS-B
Sun 12:08:40 AM 40.4690 -73.2386 113° Southeast 340 391 10,700 1,377 Climbing FlightAware ADS-B
Sun 12:09:10 AM 40.4495 -73.1792 113° Southeast 368 423 11,200 985 Climbing FlightAware ADS-B
Sun 12:09:47 AM 40.4243 -73.0995 113° Southeast 399 459 11,800 1,167 Climbing FlightAware ADS-B
Sun 12:10:22 AM 40.3991 -73.0206 113° Southeast 423 487 12,600 1,696 Climbing FlightAware ADS-B
Sun 12:10:33 AM 40.3947 -72.9900 101° East 427 491 13,100 2,270 Climbing FlightAware ADS-B
Sun 12:10:59 AM 40.3993 -72.9226 85° East 434 499 14,000 2,160 Climbing FlightAware ADS-B
Sun 12:11:23 AM 40.4207 -72.8653 64° Northeast 439 505 14,900 2,182 Climbing FlightAware ADS-B
Sun 12:11:54 AM 40.4523 -72.7928 60° Northeast 445 512 16,000 1,901 Climbing FlightAware ADS-B
Sun 12:13:04 AM 40.5261 -72.6264 60° Northeast 451 519 18,100 1,864 Climbing FlightAware ADS-B
Sun 12:13:37 AM 40.5615 -72.5460 60° Northeast 463 533 19,200 1,905 Climbing FlightAware ADS-B
Sun 12:14:07 AM 40.5938 -72.4724 60° Northeast 467 537 20,100 1,612 Climbing FlightAware ADS-B
Sun 12:14:44 AM 40.6334 -72.3806 60° Northeast 473 544 21,000 1,588 Climbing FlightAware ADS-B
Sun 12:15:15 AM 40.6666 -72.3054 60° Northeast 475 547 21,900 1,662 Climbing FlightAware ADS-B
Sun 12:15:49 AM 40.7039 -72.2192 60° Northeast 478 550 22,800 1,545 Climbing FlightAware ADS-B
Sun 12:16:21 AM 40.7393 -72.1350 61° Northeast 484 557 23,600 1,429 Climbing FlightAware ADS-B
Sun 12:16:52 AM 40.7744 -72.0552 60° Northeast 487 560 24,300 1,286 Climbing FlightAware ADS-B
Sun 12:17:45 AM 40.8333 -71.9169 61° Northeast 487 560 25,400 1,256 Climbing FlightAware ADS-B
Sun 12:18:18 AM 40.8707 -71.8298 60° Northeast 497 572 26,100 1,219 Climbing FlightAware ADS-B
Sun 12:18:49 AM 40.9053 -71.7475 61° Northeast 501 577 26,700 539 Climbing FlightAware ADS-B
Sun 12:19:47 AM 40.9640 -71.6130 60° Northeast 500 575 26,900 1,282 Climbing FlightAware ADS-B
Sun 12:20:32 AM 41.0221 -71.4739 61° Northeast 504 580 28,900 2,074 Climbing FlightAware ADS-B
Sun 12:21:08 AM 41.0600 -71.3810 62° Northeast 496 571 29,700 1,370 Climbing FlightAware ADS-B
Sun 12:22:04 AM 41.1230 -71.2310 61° Northeast 486 559 31,000 813 Climbing FlightAware ADS-B
Sun 12:22:44 AM 41.1670 -71.1280 60° Northeast 489 563 31,000  Level FlightAware ADS-B
Sun 12:23:24 AM 41.2110 -71.0220 61° Northeast 487 560 31,000  Level FlightAware ADS-B
Sun 12:24:40 AM 41.2910 -70.8250 62° Northeast 488 562 31,000  Level FlightAware ADS-B
Sun 12:25:19 AM 41.3360 -70.7170 61° Northeast 490 564 31,000  Level FlightAware ADS-B
Sun 12:26:02 AM 41.3790 -70.6120 61° Northeast 492 566 31,000  Level FlightAware ADS-B
Sun 12:26:48 AM 41.4250 -70.4990 61° Northeast 492 566 31,000  Level FlightAware ADS-B
Sun 12:27:20 AM 41.4640 -70.4050 61° Northeast 492 566 31,000  Level FlightAware ADS-B
Sun 12:28:08 AM 41.5070 -70.2960 62° Northeast 492 566 31,000  Level FlightAware ADS-B
Sun 12:29:08 AM 41.5620 -70.1590 62° Northeast 492 566 31,000  Level FlightAware ADS-B
Sun 12:29:45 AM 41.5950 -70.0740 63° Northeast 492 566 31,000  Level FlightAware ADS-B
Sun 12:30:44 AM 41.6920 -69.8340 62° Northeast 497 572 31,000  Level FlightAware ADS-B
Sun 12:31:24 AM 41.7360 -69.7220 62° Northeast 497 572 31,000  Level FlightAware ADS-B
Sun 12:32:03 AM 41.7700 -69.6310 63° Northeast 497 572 31,000  Level FlightAware ADS-B
Sun 12:33:07 AM 41.8370 -69.4630 62° Northeast 497 572 31,000  Level FlightAware ADS-B
Sun 12:33:44 AM 41.8820 -69.3480 62° Northeast 496 571 31,000  Level FlightAware ADS-B
Sun 12:34:24 AM 41.9250 -69.2380 62° Northeast 497 572 31,000  Level FlightAware ADS-B
Sun 12:35:22 AM 41.9740 -69.1090 63° Northeast 496 571 31,000  Level FlightAware ADS-B
Sun 12:36:07 AM 42.0270 -68.9730 62° Northeast 496 571 31,000  Level FlightAware ADS-B
Sun 12:36:43 AM 42.0680 -68.8650 63° Northeast 497 572 31,000  Level FlightAware ADS-B
Sun 12:37:27 AM 42.1180 -68.7290 64° Northeast 499 574 31,000  Level FlightAware ADS-B
Sun 12:38:12 AM 42.1620 -68.6160 62° Northeast 498 573 31,000  Level FlightAware ADS-B
Sun 12:38:52 AM 42.2080 -68.4910 64° Northeast 499 574 31,000  Level FlightAware ADS-B
Sun 12:39:37 AM 42.2540 -68.3690 63° Northeast 500 575 31,000  Level FlightAware ADS-B
Sun 12:40:27 AM 42.2990 -68.2480 63° Northeast 500 575 31,000  Level FlightAware ADS-B
Sun 12:41:12 AM 42.3520 -68.1060 63° Northeast 500 575 31,000  Level FlightAware ADS-B
Sun 12:42:07 AM 42.4040 -67.9650 63° Northeast 501 577 31,000  Level FlightAware ADS-B
Sun 12:42:55 AM 42.4470 -67.8510 63° Northeast 501 577 31,000  Level FlightAware ADS-B
Sun 12:43:32 AM 42.4800 -67.7630 63° Northeast 501 577 31,000  Level FlightAware ADS-B
Sun 12:44:20 AM 42.5230 -67.6490 63° Northeast 501 577 31,000  Level FlightAware ADS-B
Sun 12:44:57 AM 42.5560 -67.5610 63° Northeast 501 577 31,000  Level FlightAware ADS-B
Sun 12:45:47 AM 42.6010 -67.4420 63° Northeast 501 577 31,000  Level FlightAware ADS-B
Sun 12:46:35 AM 42.6440 -67.3270 63° Northeast 501 577 31,000  Level FlightAware ADS-B
Sun 12:47:12 AM 42.6770 -67.2390 63° Northeast 501 577 31,000  Level FlightAware ADS-B
Sun 12:48:00 AM 42.7200 -67.1240 63° Northeast 501 577 31,000  Level FlightAware ADS-B
Sun 12:48:38 AM 42.7540 -67.0330 63° Northeast 501 577 31,000  Level FlightAware ADS-B
Sun 12:49:26 AM 42.7970 -66.9180 63° Northeast 501 577 31,000  Level FlightAware ADS-B
Sun 12:50:02 AM 42.8290 -66.8320 63° Northeast 501 577 31,000  Level FlightAware ADS-B
Sun 12:50:44 AM 42.9380 -66.4780 67° East 503 579 31,000  Level FlightAware ADS-B
Sun 12:51:29 AM 42.9840 -66.3480 64° Northeast 504 580 31,000  Level FlightAware ADS-B
Sun 12:52:14 AM 43.0290 -66.2180 65° Northeast 504 580 31,000  Level FlightAware ADS-B
Sun 12:52:53 AM 43.0690 -66.1020 65° Northeast 505 581 31,000  Level FlightAware ADS-B
Sun 12:53:34 AM 43.1090 -65.9850 65° Northeast 505 581 31,000  Level FlightAware ADS-B
Sun 12:54:13 AM 43.1490 -65.8680 65° Northeast 506 582 31,000  Level FlightAware ADS-B
Sun 12:54:59 AM 43.1940 -65.7340 65° Northeast 507 583 31,000  Level FlightAware ADS-B
Sun 12:55:39 AM 43.2340 -65.6200 64° Northeast 508 585 31,000  Level FlightAware ADS-B
Sun 12:56:23 AM 43.2780 -65.4870 66° East 511 588 31,000  Level FlightAware ADS-B
Sun 12:57:04 AM 43.3180 -65.3690 65° Northeast 510 587 31,000  Level FlightAware ADS-B
Sun 12:57:43 AM 43.3570 -65.2550 65° Northeast 511 588 31,000  Level FlightAware ADS-B
Sun 12:58:29 AM 43.4020 -65.1190 65° Northeast 511 588 31,000  Level FlightAware ADS-B
Sun 12:59:10 AM 43.4410 -64.9980 66° East 511 588 31,000  Level FlightAware ADS-B
Sun 12:59:55 AM 43.4860 -64.8650 65° Northeast 510 587 31,000  Level FlightAware ADS-B
Sun 01:00:35 AM 43.5240 -64.7460 66° East 509 586 31,000  Level FlightAware ADS-B
Sun 01:01:14 AM 43.5630 -64.6280 65° Northeast 509 586 31,000  Level FlightAware ADS-B
Sun 01:01:55 AM 43.5960 -64.5270 66° East 509 586 31,000  Level FlightAware ADS-B
Sun 01:02:43 AM 43.6370 -64.4070 65° Northeast 509 586 31,000  Level FlightAware ADS-B
Sun 01:03:19 AM 43.6670 -64.3170 65° Northeast 509 586 31,000  Level FlightAware ADS-B
Sun 01:04:07 AM 43.7080 -64.1960 65° Northeast 509 586 31,000  Level FlightAware ADS-B
Sun 01:04:56 AM 43.7710 -63.9850 67° East 511 588 31,000  Level FlightAware ADS-B
Sun 01:06:10 AM 43.8430 -63.7550 66° East 511 588 31,000  Level FlightAware ADS-B
Sun 01:06:52 AM 43.8850 -63.6230 66° East 511 588 31,000  Level FlightAware ADS-B
Sun 01:07:34 AM 43.9230 -63.5000 67° East 511 588 31,000  Level FlightAware ADS-B
Sun 01:08:16 AM 43.9600 -63.3830 66° East 512 589 31,000  Level FlightAware ADS-B
Sun 01:09:03 AM 44.0090 -63.2260 66° East 512 589 31,000  Level FlightAware ADS-B
Sun 01:09:57 AM 44.0580 -63.0650 67° East 514 592 31,000  Level FlightAware ADS-B
Sun 01:10:39 AM 44.0990 -62.9320 67° East 514 592 31,000  Level FlightAware ADS-B
Sun 01:11:34 AM 44.1460 -62.7760 67° East 516 594 31,000  Level FlightAware ADS-B
Sun 01:12:23 AM 44.1900 -62.6320 67° East 516 594 31,000  Level FlightAware ADS-B
Sun 01:13:13 AM 44.2290 -62.5020 67° East 516 594 31,000  Level FlightAware ADS-B
Sun 01:13:49 AM 44.2580 -62.4080 67° East 516 594 31,000  Level FlightAware ADS-B
Sun 01:14:37 AM 44.2960 -62.2830 67° East 516 594 31,000  Level FlightAware ADS-B
Sun 01:15:13 AM 44.3250 -62.1890 67° East 516 594 31,000  Level FlightAware ADS-B
Sun 01:16:03 AM 44.3640 -62.0580 67° East 516 594 31,000  Level FlightAware ADS-B
Sun 01:16:39 AM 44.3930 -61.9640 67° East 516 594 31,000  Level FlightAware ADS-B
Sun 01:17:27 AM 44.4310 -61.8380 67° East 516 594 31,000  Level FlightAware ADS-B
Sun 01:18:04 AM 44.4600 -61.7420 67° East 516 594 31,000  Level FlightAware ADS-B
Sun 01:18:52 AM 44.4980 -61.6160 67° East 516 594 31,000  Level FlightAware ADS-B
Sun 01:19:28 AM 44.5270 -61.5220 67° East 516 594 31,000  Level FlightAware ADS-B
Sun 01:20:16 AM 44.5650 -61.3960 67° East 516 594 31,000  Level FlightAware ADS-B
Sun 01:20:50 AM 44.5920 -61.3070 67° East 516 594 31,000  Level FlightAware ADS-B
Sun 01:21:38 AM 44.6300 -61.1810 67° East 516 594 31,000 816 Level FlightAware ADS-B
Sun 01:23:17 AM 44.7870 -60.5750 70° East 515 593 33,000 863 Climbing FlightAware ADS-B
Sun 01:23:57 AM 44.8220 -60.4500 68° East 514 592 33,000  Level FlightAware ADS-B
Sun 01:24:35 AM 44.8540 -60.3320 69° East 514 592 33,000  Level FlightAware ADS-B
Sun 01:25:23 AM 44.8960 -60.1780 69° East 516 594 33,000  Level FlightAware ADS-B
Sun 01:26:03 AM 44.9300 -60.0560 68° East 517 595 33,000  Level FlightAware ADS-B
Sun 01:26:43 AM 44.9640 -59.9300 69° East 517 595 33,000  Level FlightAware ADS-B
Sun 01:27:27 AM 45.0010 -59.7910 69° East 518 596 33,000  Level FlightAware ADS-B
Sun 01:28:07 AM 45.0360 -59.6640 69° East 520 598 33,000  Level FlightAware ADS-B
Sun 01:28:51 AM 45.0740 -59.5210 69° East 522 601 33,000  Level FlightAware ADS-B
Sun 01:29:31 AM 45.1080 -59.3930 69° East 523 602 33,000  Level FlightAware ADS-B
Sun 01:30:29 AM 45.1570 -59.2060 70° East 526 605 33,000  Level FlightAware ADS-B
Sun 01:31:09 AM 45.1910 -59.0770 69° East 527 606 33,000  Level FlightAware ADS-B
Sun 01:31:53 AM 45.2280 -58.9340 70° East 527 606 33,000  Level FlightAware ADS-B
Sun 01:32:37 AM 45.2640 -58.7950 70° East 528 608 33,000  Level FlightAware ADS-B
Sun 01:33:19 AM 45.3000 -58.6540 70° East 529 609 33,000  Level FlightAware ADS-B
Sun 01:33:59 AM 45.3330 -58.5270 70° East 530 610 33,000  Level FlightAware ADS-B
Sun 01:34:41 AM 45.3680 -58.3900 70° East 530 610 33,000  Level FlightAware ADS-B
Sun 01:35:23 AM 45.4030 -58.2520 70° East 532 612 33,000  Level FlightAware ADS-B
Sun 01:36:07 AM 45.4400 -58.1050 70° East 545 627 33,000  Level FlightAware ADS-B
Sun 01:36:47 AM 45.4740 -57.9690 70° East 549 632 33,000  Level FlightAware ADS-B
Sun 01:37:25 AM 45.5030 -57.8530 70° East 549 632 33,000  Level FlightAware ADS-B
Sun 01:38:14 AM 45.5390 -57.7110 70° East 549 632 33,000  Level FlightAware ADS-B
Sun 01:38:51 AM 45.5670 -57.6040 69° East 549 632 33,000  Level FlightAware ADS-B
Sun 01:39:39 AM 45.6020 -57.4650 70° East 549 632 33,000  Level FlightAware ADS-B
Sun 01:40:15 AM 45.6290 -57.3600 70° East 549 632 33,000  Level FlightAware ADS-B
Sun 01:40:53 AM 45.6570 -57.2500 70° East 549 632 33,000  Level FlightAware ADS-B
Sun 01:41:41 AM 45.6920 -57.1110 70° East 549 632 33,000  Level FlightAware ADS-B
Sun 01:42:37 AM 45.7670 -56.7610 73° East 551 634 33,000  Level FlightAware ADS-B
Sun 01:43:15 AM 45.7960 -56.6370 71° East 546 628 33,000  Level FlightAware ADS-B
Sun 01:44:01 AM 45.8340 -56.4730 72° East 543 625 33,000  Level FlightAware ADS-B
Sun 01:44:46 AM 45.8690 -56.3230 71° East 543 625 33,000  Level FlightAware ADS-B
Sun 01:45:27 AM 45.9020 -56.1790 72° East 543 625 33,000  Level FlightAware ADS-B
Sun 01:46:02 AM 45.9300 -56.0590 71° East 544 626 33,000  Level FlightAware ADS-B
Sun 01:46:50 AM 45.9660 -55.8890 73° East 548 631 33,000  Level FlightAware ADS-B
Sun 01:47:32 AM 45.9940 -55.7460 74° East 550 633 33,000  Level FlightAware ADS-B
Sun 01:48:11 AM 46.0220 -55.6090 74° East 551 634 33,000  Level FlightAware ADS-B
Sun 01:48:57 AM 46.0540 -55.4500 74° East 553 636 33,000  Level FlightAware ADS-B
Sun 01:49:37 AM 46.0820 -55.3080 74° East 554 638 33,000  Level FlightAware ADS-B
Sun 01:50:12 AM 46.1070 -55.1850 74° East 555 639 33,000  Level FlightAware ADS-B
Sun 01:51:17 AM 46.1530 -54.9500 74° East 555 639 33,000  Level FlightAware ADS-B
Sun 01:51:57 AM 46.1800 -54.8140 74° East 555 639 33,000  Level FlightAware ADS-B
Sun 01:52:42 AM 46.2100 -54.6610 74° East 556 640 33,000  Level FlightAware ADS-B
Sun 01:53:22 AM 46.2400 -54.5040 75° East 556 640 33,000  Level FlightAware ADS-B
Sun 01:54:06 AM 46.2700 -54.3460 75° East 557 641 33,000  Level FlightAware ADS-B
Sun 01:54:42 AM 46.2950 -54.2140 75° East 556 640 33,000  Level FlightAware ADS-B
Sun 01:55:26 AM 46.3240 -54.0560 75° East 555 639 33,000  Level FlightAware ADS-B
Sun 01:56:10 AM 46.3530 -53.9020 75° East 555 639 33,000  Level FlightAware ADS-B
Sun 01:56:50 AM 46.3800 -53.7550 75° East 556 640 33,000  Level FlightAware ADS-B
Sun 01:57:34 AM 46.4090 -53.5960 75° East 557 641 33,000  Level FlightAware ADS-B
Sun 01:58:15 AM 46.4350 -53.4520 75° East 557 641 33,000  Level FlightAware ADS-B
Sun 01:58:54 AM 46.4600 -53.3110 76° East 558 642 33,000  Level FlightAware ADS-B
Sun 01:59:38 AM 46.4890 -53.1520 75° East 559 643 33,000  Level FlightAware ADS-B
Sun 02:00:24 AM 46.5180 -52.9890 75° East 560 644 33,000  Level FlightAware ADS-B
Sun 02:01:18 AM 46.5530 -52.7880 76° East 560 644 33,000  Level FlightAware ADS-B
Sun 02:01:58 AM 46.5780 -52.6420 76° East 561 646 33,000  Level FlightAware ADS-B
Sun 02:02:40 AM 46.6050 -52.4890 76° East 563 648 33,000  Level FlightAware ADS-B
Sun 02:03:24 AM 46.6330 -52.3230 76° East 564 649 33,000  Level FlightAware ADS-B
Sun 02:04:08 AM 46.6590 -52.1650 76° East 565 650 33,000  Level FlightAware ADS-B
Sun 02:04:48 AM 46.6840 -52.0140 76° East 565 650 33,000  Level FlightAware ADS-B
Sun 02:05:32 AM 46.7110 -51.8550 76° East 566 651 33,000  Level FlightAware ADS-B
Sun 02:06:12 AM 46.7350 -51.7060 77° East 568 654 33,000  Level FlightAware ADS-B
Sun 02:06:46 AM 46.7560 -51.5830 76° East 570 656 33,000  Level FlightAware ADS-B
Sun 02:07:38 AM 46.7870 -51.3880 77° East 572 658 33,000  Level FlightAware ADS-B
Sun 02:08:17 AM 46.8110 -51.2380 77° East 573 659 33,000  Level FlightAware ADS-B
Sun 02:08:57 AM 46.8350 -51.0870 77° East 574 661 33,000  Level FlightAware ADS-B
Sun 02:09:40 AM 46.8550 -50.9610 77° East 574 661 33,000  Level FlightAware ADS-B
Sun 02:10:16 AM 46.8730 -50.8450 77° East 574 661 33,000  Level FlightAware ADS-B
Sun 02:11:06 AM 46.8990 -50.6850 77° East 574 661 33,000  Level FlightAware ADS-B
Sun 02:11:43 AM 46.9170 -50.5650 78° East 574 661 33,000  Level FlightAware ADS-B
Sun 02:12:32 AM 46.9420 -50.4080 77° East 574 661 33,000  Level FlightAware ADS-B
Sun 02:13:08 AM 46.9600 -50.2920 77° East 574 661 33,000  Level FlightAware ADS-B
Sun 02:13:56 AM 46.9850 -50.1370 77° East 574 661 33,000  Level FlightAware ADS-B
Sun 02:14:32 AM 47.0030 -50.0210 77° East 574 661 33,000  Level FlightAware ADS-B
Sun 02:15:33 AM 47.0340 -49.8240 77° East 574 661 33,000  Level FlightAware ADS-B
Sun 02:16:09 AM 47.0520 -49.7080 77° East 574 661 33,000  Level FlightAware ADS-B
Sun 02:17:00 AM 47.0000 -50.0000 70° East 570 656 33,000  Level ETMS Enhanced Traffic Management System
Sun 02:17:11 AM 47.0840 -49.5080 77° East 574 661 33,000  Level FlightAware ADS-B
Sun 02:17:34 AM 47.2000 -49.1167 70° East 570 656 33,000  Level Gander Center
Sun 02:17:48 AM 47.1020 -49.3880 78° East 574 661 33,000  Level FlightAware ADS-B
Sun 02:18:34 AM 47.2333 -48.8833 78° East 570 656 33,000  Level Gander Center
Sun 02:18:36 AM 47.1270 -49.2330 77° East 574 661 33,000  Level FlightAware ADS-B
Sun 02:19:34 AM 47.3000 -48.6667 66° East 580 667 33,000  Level Gander Center
Sun 02:20:34 AM 47.3333 -48.4500 77° East 570 656 33,000  Level Gander Center
Sun 02:21:34 AM 47.4000 -48.2333 65° Northeast 560 644 33,000  Level Gander Center
Sun 02:22:34 AM 47.4333 -48.0333 76° East 550 633 33,000  Level Gander Center
Sun 02:23:34 AM 47.5000 -47.8167 65° Northeast 560 644 33,000  Level Gander Center
Sun 02:24:34 AM 47.5333 -47.6000 77° East 540 621 33,000  Level Gander Center
Sun 02:25:34 AM 47.5833 -47.3667 72° East 570 656 33,000  Level Gander Center
Sun 02:26:34 AM 47.6333 -47.1500 71° East 570 656 33,000  Level Gander Center
Sun 02:27:34 AM 47.6667 -46.9500 76° East 570 656 33,000  Level Gander Center
Sun 02:28:34 AM 47.7333 -46.7000 68° East 560 644 33,000  Level Gander Center
Sun 02:29:34 AM 47.7667 -46.4833 77° East 570 656 33,000  Level Gander Center
Sun 02:31:00 AM 47.8362 -46.1987 70° East  Level FlightAware Approximate
Sun 02:38:00 AM 48.1572 -44.7925 73° East  Level FlightAware Approximate
Sun 02:39:00 AM 48.1969 -44.5882 74° East  Level FlightAware Approximate
Sun 02:40:00 AM 48.2362 -44.3835 74° East  Level FlightAware Approximate
Sun 02:41:00 AM 48.2751 -44.1785 74° East  Level FlightAware Approximate
Sun 02:42:00 AM 48.3137 -43.9733 74° East  Level FlightAware Approximate
Sun 02:43:00 AM 48.3519 -43.7677 74° East  Level FlightAware Approximate
Sun 02:44:00 AM 48.3897 -43.5618 74° East  Level FlightAware Approximate
Sun 02:45:00 AM 48.4272 -43.3556 75° East  Level FlightAware Approximate
Sun 02:46:00 AM 48.4643 -43.1491 75° East  Level FlightAware Approximate
Sun 02:47:00 AM 48.5010 -42.9423 75° East  Level FlightAware Approximate
Sun 02:48:00 AM 48.5374 -42.7352 75° East  Level FlightAware Approximate
Sun 02:49:00 AM 48.5737 -42.5279 75° East  Level FlightAware Approximate
Sun 02:50:00 AM 48.6110 -42.3209 75° East  Level FlightAware Approximate
Sun 02:51:00 AM 48.6479 -42.1135 75° East  Level FlightAware Approximate
Sun 02:52:00 AM 48.6844 -41.9059 75° East  Level FlightAware Approximate
Sun 02:53:00 AM 48.7206 -41.6979 75° East  Level FlightAware Approximate
Sun 02:54:00 AM 48.7564 -41.4897 75° East  Level FlightAware Approximate
Sun 02:55:00 AM 48.7918 -41.2812 75° East  Level FlightAware Approximate
Sun 02:56:00 AM 48.8268 -41.0723 76° East  Level FlightAware Approximate
Sun 02:57:00 AM 48.8614 -40.8632 76° East  Level FlightAware Approximate
Sun 02:58:00 AM 48.8957 -40.6538 76° East  Level FlightAware Approximate
Sun 02:59:00 AM 48.9296 -40.4441 76° East  Level FlightAware Approximate
Sun 03:00:00 AM 48.9631 -40.2342 76° East  Level FlightAware Approximate
Sun 03:01:00 AM 48.9963 -40.0239 76° East  Level FlightAware Approximate
Sun 03:02:00 AM 49.0266 -39.8126 78° East  Level FlightAware Approximate
Sun 03:03:00 AM 49.0563 -39.6008 78° East  Level FlightAware Approximate
Sun 03:04:00 AM 49.0856 -39.3889 78° East  Level FlightAware Approximate
Sun 03:05:00 AM 49.1145 -39.1767 78° East  Level FlightAware Approximate
Sun 03:06:00 AM 49.1430 -38.9642 78° East  Level FlightAware Approximate
Sun 03:06:00 AM 49.0000 -40.0000 77° East 549 632 33,000  Level ETMS Enhanced Traffic Management System
Sun 03:07:00 AM 49.1711 -38.7515 78° East  Level FlightAware Approximate
Sun 03:08:00 AM 49.1988 -38.5386 79° East  Level FlightAware Approximate
Sun 03:09:00 AM 49.2261 -38.3254 79° East  Level FlightAware Approximate
Sun 03:10:00 AM 49.2531 -38.1120 79° East  Level FlightAware Approximate
Sun 03:11:00 AM 49.2796 -37.8983 79° East  Level FlightAware Approximate
Sun 03:12:00 AM 49.4199 -36.7912 80° East 549 632 33,000  Level FlightAware Transoceanic
Sun 03:13:00 AM 49.4464 -36.5600 80° East 549 632 33,000  Level FlightAware Transoceanic
Sun 03:14:00 AM 49.4725 -36.3285 80° East 549 632 33,000  Level FlightAware Transoceanic
Sun 03:15:00 AM 49.4982 -36.0968 80° East 549 632 33,000  Level FlightAware Transoceanic
Sun 03:16:00 AM 49.5234 -35.8649 81° East 549 632 33,000  Level FlightAware Transoceanic
Sun 03:17:00 AM 49.5481 -35.6327 81° East 549 632 33,000  Level FlightAware Transoceanic
Sun 03:18:00 AM 49.5723 -35.4003 81° East 549 632 33,000  Level FlightAware Transoceanic
Sun 03:19:00 AM 49.5961 -35.1676 81° East 549 632 33,000  Level FlightAware Transoceanic
Sun 03:20:00 AM 49.6194 -34.9348 81° East 549 632 33,000  Level FlightAware Transoceanic
Sun 03:21:00 AM 49.6423 -34.7017 81° East 549 632 33,000  Level FlightAware Transoceanic
Sun 03:22:00 AM 49.6647 -34.4684 82° East 549 632 33,000  Level FlightAware Transoceanic
Sun 03:23:00 AM 49.6866 -34.2348 82° East 549 632 33,000  Level FlightAware Transoceanic
Sun 03:24:00 AM 49.7080 -34.0011 82° East 549 632 33,000  Level FlightAware Transoceanic
Sun 03:25:00 AM 49.7290 -33.7672 82° East 549 632 33,000  Level FlightAware Transoceanic
Sun 03:26:00 AM 49.7495 -33.5330 82° East 549 632 33,000  Level FlightAware Transoceanic
Sun 03:27:00 AM 49.7695 -33.2987 83° East 549 632 33,000  Level FlightAware Transoceanic
Sun 03:28:00 AM 49.7891 -33.0642 83° East 549 632 33,000  Level FlightAware Transoceanic
Sun 03:29:00 AM 49.8082 -32.8295 83° East 549 632 33,000  Level FlightAware Transoceanic
Sun 03:30:00 AM 49.8268 -32.5946 83° East 549 632 33,000  Level FlightAware Transoceanic
Sun 03:31:00 AM 49.8449 -32.3595 83° East 549 632 33,000  Level FlightAware Transoceanic
Sun 03:32:00 AM 49.8626 -32.1243 83° East 549 632 33,000  Level FlightAware Transoceanic
Sun 03:33:00 AM 49.8798 -31.8889 84° East 549 632 33,000  Level FlightAware Transoceanic
Sun 03:34:00 AM 49.8965 -31.6533 84° East 549 632 33,000  Level FlightAware Transoceanic
Sun 03:35:00 AM 49.9127 -31.4176 84° East 549 632 33,000  Level FlightAware Transoceanic
Sun 03:36:00 AM 49.9284 -31.1817 84° East 549 632 33,000  Level FlightAware Transoceanic
Sun 03:37:00 AM 49.9437 -30.9456 84° East 549 632 33,000  Level FlightAware Transoceanic
Sun 03:38:00 AM 49.9585 -30.7094 85° East 549 632 33,000  Level FlightAware Transoceanic
Sun 03:39:00 AM 49.9728 -30.4731 85° East 549 632 33,000  Level FlightAware Transoceanic
Sun 03:40:00 AM 49.9866 -30.2366 85° East 549 632 33,000  Level FlightAware Transoceanic
Sun 03:41:00 AM 49.9991 -30.0171 85° East  Level FlightAware Approximate
Sun 03:42:00 AM 50.0111 -29.7974 85° East  Level FlightAware Approximate
Sun 03:43:00 AM 50.0263 -29.8184 77° East  Level FlightAware Approximate
Sun 03:44:00 AM 50.0571 -29.6031 77° East  Level FlightAware Approximate
Sun 03:45:00 AM 50.0875 -29.3874 78° East  Level FlightAware Approximate
Sun 03:46:00 AM 50.1175 -29.1716 78° East  Level FlightAware Approximate
Sun 03:46:00 AM 50.0000 -30.0000 77° East 526 605 33,000  Level ETMS Enhanced Traffic Management System
Sun 03:47:00 AM 50.1470 -28.9558 78° East  Level FlightAware Approximate
Sun 03:48:00 AM 50.1762 -28.7398 78° East  Level FlightAware Approximate
Sun 03:49:00 AM 50.2049 -28.5235 78° East  Level FlightAware Approximate
Sun 03:50:00 AM 50.2332 -28.3069 78° East  Level FlightAware Approximate
Sun 03:51:00 AM 50.2612 -28.0901 79° East  Level FlightAware Approximate
Sun 03:52:00 AM 50.3298 -27.5423 79° East 526 605 33,000  Level FlightAware Transoceanic
Sun 03:53:00 AM 50.3572 -27.3173 79° East 526 605 33,000  Level FlightAware Transoceanic
Sun 03:54:00 AM 50.3842 -27.0919 79° East 526 605 33,000  Level FlightAware Transoceanic
Sun 03:55:00 AM 50.4107 -26.8664 80° East 526 605 33,000  Level FlightAware Transoceanic
Sun 03:56:00 AM 50.4368 -26.6406 80° East 526 605 33,000  Level FlightAware Transoceanic
Sun 03:57:00 AM 50.4625 -26.4145 80° East 526 605 33,000  Level FlightAware Transoceanic
Sun 03:58:00 AM 50.4877 -26.1882 80° East 526 605 33,000  Level FlightAware Transoceanic
Sun 03:59:00 AM 50.5125 -25.9616 80° East 526 605 33,000  Level FlightAware Transoceanic
Sun 04:00:00 AM 50.5368 -25.7348 81° East 526 605 33,000  Level FlightAware Transoceanic
Sun 04:01:00 AM 50.5607 -25.5078 81° East 526 605 33,000  Level FlightAware Transoceanic
Sun 04:02:00 AM 50.5841 -25.2805 81° East 526 605 33,000  Level FlightAware Transoceanic
Sun 04:03:00 AM 50.6072 -25.0531 81° East 526 605 33,000  Level FlightAware Transoceanic
Sun 04:04:00 AM 50.6297 -24.8254 81° East 526 605 33,000  Level FlightAware Transoceanic
Sun 04:05:00 AM 50.6519 -24.5975 81° East 526 605 33,000  Level FlightAware Transoceanic
Sun 04:06:00 AM 50.6735 -24.3693 82° East 526 605 33,000  Level FlightAware Transoceanic
Sun 04:07:00 AM 50.6948 -24.1410 82° East 526 605 33,000  Level FlightAware Transoceanic
Sun 04:08:00 AM 50.7156 -23.9125 82° East 526 605 33,000  Level FlightAware Transoceanic
Sun 04:09:00 AM 50.7359 -23.6837 82° East 526 605 33,000  Level FlightAware Transoceanic
Sun 04:10:00 AM 50.7558 -23.4548 82° East 526 605 33,000  Level FlightAware Transoceanic
Sun 04:11:00 AM 50.7752 -23.2257 82° East 526 605 33,000  Level FlightAware Transoceanic
Sun 04:12:00 AM 50.7942 -22.9963 83° East 526 605 33,000  Level FlightAware Transoceanic
Sun 04:13:00 AM 50.8128 -22.7668 83° East 526 605 33,000  Level FlightAware Transoceanic
Sun 04:14:00 AM 50.8309 -22.5372 83° East 526 605 33,000  Level FlightAware Transoceanic
Sun 04:15:00 AM 50.8485 -22.3073 83° East 526 605 33,000  Level FlightAware Transoceanic
Sun 04:16:00 AM 50.8657 -22.0773 83° East 526 605 33,000  Level FlightAware Transoceanic
Sun 04:17:00 AM 50.8824 -21.8471 84° East 526 605 33,000  Level FlightAware Transoceanic
Sun 04:18:00 AM 50.8987 -21.6167 84° East 526 605 33,000  Level FlightAware Transoceanic
Sun 04:19:00 AM 50.9146 -21.3862 84° East 526 605 33,000  Level FlightAware Transoceanic
Sun 04:20:00 AM 50.9299 -21.1555 84° East 526 605 33,000  Level FlightAware Transoceanic
Sun 04:21:00 AM 50.9449 -20.9247 84° East 526 605 33,000  Level FlightAware Transoceanic
Sun 04:22:00 AM 50.9593 -20.6937 84° East 526 605 33,000  Level FlightAware Transoceanic
Sun 04:23:00 AM 50.9733 -20.4626 85° East 526 605 33,000  Level FlightAware Transoceanic
Sun 04:24:00 AM 50.9869 -20.2314 85° East 526 605 33,000 48 Level FlightAware Transoceanic
Sun 04:25:00 AM 50.9996 -20.0076 85° East  Level FlightAware Approximate
Sun 04:26:00 AM 51.0118 -19.7836 85° East  Level FlightAware Approximate
Sun 04:27:00 AM 50.9771 -19.7937 100° East  Level FlightAware Approximate
Sun 04:28:00 AM 50.9520 -19.5727 100° East  Level FlightAware Approximate
Sun 04:29:00 AM 50.9266 -19.3519 100° East  Level FlightAware Approximate
Sun 04:30:00 AM 50.9008 -19.1313 100° East  Level FlightAware Approximate
Sun 04:31:00 AM 50.8745 -18.9111 101° East  Level FlightAware Approximate
Sun 04:32:00 AM 50.8479 -18.6910 101° East  Level FlightAware Approximate
Sun 04:33:00 AM 50.8208 -18.4712 101° East  Level FlightAware Approximate
Sun 04:34:00 AM 50.7933 -18.2517 101° East  Level FlightAware Approximate
Sun 04:35:00 AM 50.7654 -18.0324 101° East  Level FlightAware Approximate
Sun 04:36:00 AM 50.7371 -17.8134 101° East  Level FlightAware Approximate
Sun 04:37:00 AM 50.7083 -17.5946 102° East  Level FlightAware Approximate
Sun 04:38:00 AM 50.6792 -17.3761 102° East  Level FlightAware Approximate
Sun 04:39:00 AM 50.6497 -17.1579 102° East  Level FlightAware Approximate
Sun 04:40:00 AM 50.6197 -16.9400 102° East  Level FlightAware Approximate
Sun 04:41:00 AM 50.5893 -16.7223 102° East  Level FlightAware Approximate
Sun 04:42:00 AM 50.5586 -16.5050 102° East  Level FlightAware Approximate
Sun 04:43:00 AM 50.5274 -16.2879 103° East  Level FlightAware Approximate
Sun 04:44:00 AM 50.4958 -16.0711 103° East  Level FlightAware Approximate
Sun 04:45:00 AM 50.4639 -15.8546 103° East  Level FlightAware Approximate
Sun 04:46:00 AM 50.4315 -15.6383 103° East  Level FlightAware Approximate
Sun 04:47:00 AM 50.3987 -15.4224 103° East  Level FlightAware Approximate
Sun 04:48:00 AM 50.3656 -15.2068 103° East  Level FlightAware Approximate
Sun 04:49:00 AM 50.3320 -14.9915 104° East  Level FlightAware Approximate
Sun 04:50:00 AM 50.2981 -14.7764 104° East  Level FlightAware Approximate
Sun 04:51:00 AM 50.2639 -14.5617 104° East  Level FlightAware Approximate
Sun 04:52:00 AM 50.2293 -14.3473 104° East  Level FlightAware Approximate
Sun 04:53:00 AM 50.1942 -14.1331 104° East  Level FlightAware Approximate
Sun 04:54:00 AM 50.1588 -13.9193 104° East  Level FlightAware Approximate
Sun 04:55:00 AM 50.1231 -13.7058 105° East  Level FlightAware Approximate
Sun 04:56:00 AM 50.0870 -13.4926 105° East  Level FlightAware Approximate
Sun 04:57:00 AM 50.0505 -13.2797 105° East  Level FlightAware Approximate
Sun 04:58:00 AM 50.0137 -13.0671 105° East  Level FlightAware Approximate
Sun 04:59:00 AM 49.9765 -12.8548 105° East  Level FlightAware Approximate
Sun 05:00:00 AM 49.9388 -12.6429 105° East  Level FlightAware Approximate
Sun 05:01:00 AM 49.9008 -12.4313 106° East  Level FlightAware Approximate
Sun 05:02:00 AM 49.8624 -12.2201 106° East  Level FlightAware Approximate
Sun 05:03:00 AM 49.8236 -12.0092 106° East  Level FlightAware Approximate
Sun 05:04:00 AM 49.7845 -11.7986 106° East  Level FlightAware Approximate
Sun 05:04:38 AM 50.2770 -11.3020 106° East 516 594 35,000  Level FlightAware ADS-B
Sun 05:05:00 AM 49.7449 -11.5884 106° East  Level FlightAware Approximate
Sun 05:05:14 AM 50.2480 -11.1760 110° East 515 593 35,000  Level FlightAware ADS-B
Sun 05:06:19 AM 50.1960 -10.9530 110° East 515 593 35,000  Level FlightAware ADS-B
Sun 05:07:00 AM 50.1660 -10.8270 110° East 514 592 35,000  Level FlightAware ADS-B
Sun 05:08:09 AM 50.1040 -10.5680 110° East 514 592 35,000  Level FlightAware ADS-B
Sun 05:08:50 AM 50.0710 -10.4330 111° Southeast 513 590 35,000  Level FlightAware ADS-B
Sun 05:09:46 AM 50.0250 -10.2400 110° East 514 592 35,000  Level FlightAware ADS-B
Sun 05:10:30 AM 49.9860 -10.0840 111° Southeast 514 592 35,000  Level FlightAware ADS-B
Sun 05:11:10 AM 49.9540 -9.9500 110° East 514 592 35,000  Level FlightAware ADS-B
Sun 05:11:40 AM 49.9290 -9.8500 111° Southeast 514 592 35,000  Level FlightAware ADS-B
Sun 05:12:23 AM 49.8950 -9.7120 111° Southeast 515 593 35,000  Level FlightAware ADS-B
Sun 05:13:02 AM 49.8570 -9.5640 112° Southeast 515 593 35,000  Level FlightAware ADS-B
Sun 05:13:44 AM 49.8200 -9.4130 111° Southeast 515 593 35,000  Level FlightAware ADS-B
Sun 05:14:27 AM 49.7820 -9.2660 112° Southeast 515 593 35,000  Level FlightAware ADS-B
Sun 05:15:10 AM 49.7470 -9.1250 111° Southeast 515 593 35,000  Level FlightAware ADS-B
Sun 05:15:50 AM 49.7095 -8.9803 111° Southeast 486 559 35,000  Level FlightAware UK
Sun 05:15:50 AM 49.7110 -8.9850 111° Southeast 515 593 35,000  Level FlightAware ADS-B
Sun 05:16:08 AM 49.6935 -8.9188 111° Southeast 486 559 35,000  Level FlightAware UK
Sun 05:16:26 AM 49.6777 -8.8575 112° Southeast 484 557 35,000  Level FlightAware UK
Sun 05:16:32 AM 49.6740 -8.8420 112° Southeast 514 592 35,000  Level FlightAware ADS-B
Sun 05:16:50 AM 49.6565 -8.7758 112° Southeast 484 557 35,000  Level FlightAware UK
Sun 05:17:08 AM 49.6407 -8.7145 112° Southeast 484 557 35,000  Level FlightAware UK
Sun 05:17:16 AM 49.6350 -8.6920 112° Southeast 514 592 35,000  Level FlightAware ADS-B
Sun 05:17:32 AM 49.6194 -8.6329 112° Southeast 484 557 35,000  Level FlightAware UK
Sun 05:17:50 AM 49.6034 -8.5717 112° Southeast 484 557 35,000  Level FlightAware UK
Sun 05:17:56 AM 49.5990 -8.5560 112° Southeast 515 593 35,000  Level FlightAware ADS-B
Sun 05:18:14 AM 49.5819 -8.4902 112° Southeast 484 557 35,000  Level FlightAware UK
Sun 05:18:32 AM 49.5658 -8.4290 112° Southeast 484 557 35,000  Level FlightAware UK
Sun 05:18:40 AM 49.5600 -8.4060 112° Southeast 515 593 35,000  Level FlightAware ADS-B
Sun 05:18:56 AM 49.5443 -8.3475 112° Southeast 484 557 35,000  Level FlightAware UK
Sun 05:19:14 AM 49.5282 -8.2864 112° Southeast 486 559 35,000  Level FlightAware UK
Sun 05:19:22 AM 49.5220 -8.2640 112° Southeast 516 594 35,000  Level FlightAware ADS-B
Sun 05:19:38 AM 49.5067 -8.2049 112° Southeast 486 559 35,000  Level FlightAware UK
Sun 05:19:56 AM 49.4904 -8.1439 112° Southeast 484 557 35,000  Level FlightAware UK
Sun 05:20:00 AM 49.4880 -8.1350 112° Southeast 516 594 35,000  Level FlightAware ADS-B
Sun 05:20:20 AM 49.4686 -8.0626 112° Southeast 486 559 35,000  Level FlightAware UK
Sun 05:20:38 AM 49.4520 -8.0009 112° Southeast 484 557 35,000  Level FlightAware UK
Sun 05:20:56 AM 49.4355 -7.9400 113° Southeast 486 559 35,000  Level FlightAware UK
Sun 05:20:59 AM 49.4340 -7.9320 113° Southeast 517 595 35,000  Level FlightAware ADS-B
Sun 05:21:14 AM 49.4191 -7.8790 113° Southeast 486 559 35,000  Level FlightAware UK
Sun 05:21:32 AM 49.4026 -7.8179 113° Southeast 484 557 35,000  Level FlightAware UK
Sun 05:21:42 AM 49.3950 -7.7890 113° Southeast 518 596 35,000  Level FlightAware ADS-B
Sun 05:22:02 AM 49.3742 -7.7168 113° Southeast 486 559 35,000  Level FlightAware UK
Sun 05:22:20 AM 49.3546 -7.6571 117° Southeast 486 559 35,000  Level FlightAware UK
Sun 05:22:21 AM 49.3540 -7.6590 117° Southeast 520 598 35,000  Level FlightAware ADS-B
Sun 05:22:38 AM 49.3347 -7.5979 117° Southeast 488 562 35,000  Level FlightAware UK
Sun 05:22:56 AM 49.3151 -7.5386 117° Southeast 488 562 35,000  Level FlightAware UK
Sun 05:23:07 AM 49.3040 -7.5040 117° Southeast 521 600 35,000  Level FlightAware ADS-B
Sun 05:23:26 AM 49.2826 -7.4397 117° Southeast 486 559 35,000  Level FlightAware UK
Sun 05:23:44 AM 49.2632 -7.3805 117° Southeast 486 559 35,000  Level FlightAware UK
Sun 05:23:48 AM 49.2610 -7.3730 117° Southeast 521 600 35,000  Level FlightAware ADS-B
Sun 05:24:08 AM 49.2373 -7.3015 117° Southeast 486 559 35,000  Level FlightAware UK
Sun 05:24:26 AM 49.2180 -7.2423 117° Southeast 486 559 35,000  Level FlightAware UK
Sun 05:24:32 AM 49.2130 -7.2280 117° Southeast 521 600 35,000  Level FlightAware ADS-B
Sun 05:24:50 AM 49.1920 -7.1635 117° Southeast 488 562 35,000  Level FlightAware UK
Sun 05:25:08 AM 49.1725 -7.1044 117° Southeast 486 559 35,000  Level FlightAware UK
Sun 05:25:08 AM 49.1740 -7.1100 117° Southeast 521 600 35,000  Level FlightAware ADS-B
Sun 05:25:32 AM 49.1465 -7.0255 117° Southeast 488 562 35,000  Level FlightAware UK
Sun 05:25:52 AM 49.1260 -6.9650 117° Southeast 520 598 35,000  Level FlightAware ADS-B
Sun 05:26:09 AM 49.1073 -6.9068 117° Southeast 502 578 35,000  Level FlightAware UK
Sun 05:26:27 AM 49.0879 -6.8480 117° Southeast 496 571 35,000  Level FlightAware UK
Sun 05:26:37 AM 49.0800 -6.8230 117° Southeast 505 581 35,000  Level FlightAware ADS-B
Sun 05:26:57 AM 49.0563 -6.7516 117° Southeast 486 559 35,000  Level FlightAware UK
Sun 05:27:15 AM 49.0379 -6.6972 117° Southeast 486 559 35,000  Level FlightAware UK
Sun 05:27:16 AM 49.0370 -6.6970 117° Southeast 502 578 35,000  Level FlightAware ADS-B
Sun 05:27:33 AM 49.0189 -6.6405 117° Southeast 484 557 35,000  Level FlightAware UK
Sun 05:27:51 AM 49.0001 -6.5839 117° Southeast 482 555 35,000  Level FlightAware UK
Sun 05:28:00 AM 48.9910 -6.5580 117° Southeast 502 578 35,000  Level FlightAware ADS-B
Sun 05:28:15 AM 48.9748 -6.5084 117° Southeast 484 557 35,000  Level FlightAware UK
Sun 05:28:33 AM 48.9558 -6.4519 117° Southeast 486 559 35,000  Level FlightAware UK
Sun 05:28:41 AM 48.9470 -6.4260 117° Southeast 502 578 35,000  Level FlightAware ADS-B
Sun 05:28:57 AM 48.9304 -6.3764 117° Southeast 490 564 35,000  Level FlightAware UK
Sun 05:29:15 AM 48.9113 -6.3199 117° Southeast 488 562 35,000  Level FlightAware UK
Sun 05:29:24 AM 48.9030 -6.2980 117° Southeast 500 575 35,000  Level FlightAware ADS-B
Sun 05:29:39 AM 48.8858 -6.2451 117° Southeast 486 559 35,000  Level FlightAware UK
Sun 05:29:57 AM 48.8667 -6.1892 117° Southeast 484 557 35,000  Level FlightAware UK
Sun 05:30:04 AM 48.8600 -6.1700 117° Southeast 498 573 35,000  Level FlightAware ADS-B
Sun 05:30:21 AM 48.8411 -6.1148 117° Southeast 484 557 35,000  Level FlightAware UK
Sun 05:30:39 AM 48.8220 -6.0590 117° Southeast 482 555 35,000  Level FlightAware UK
Sun 05:30:50 AM 48.8110 -6.0280 117° Southeast 497 572 35,000  Level FlightAware ADS-B
Sun 05:31:21 AM 48.7775 -5.9291 117° Southeast 482 555 35,000  Level FlightAware UK
Sun 05:31:31 AM 48.7680 -5.9040 117° Southeast 498 573 35,000  Level FlightAware ADS-B
Sun 05:31:51 AM 48.7456 -5.8365 117° Southeast 482 555 35,000  Level FlightAware UK
Sun 05:32:08 AM 48.7280 -5.7870 118° Southeast 500 575 35,000  Level FlightAware ADS-B
Sun 05:32:09 AM 48.7261 -5.7802 118° Southeast 484 557 35,000  Level FlightAware UK
Sun 05:32:27 AM 48.7069 -5.7247 118° Southeast 484 557 35,000  Level FlightAware UK
Sun 05:32:52 AM 48.6810 -5.6510 118° Southeast 500 575 35,000  Level FlightAware ADS-B
Sun 05:33:09 AM 48.6616 -5.5949 118° Southeast 486 559 35,000  Level FlightAware UK
Sun 05:33:27 AM 48.6422 -5.5393 118° Southeast 484 557 35,000  Level FlightAware UK
Sun 05:33:30 AM 48.6390 -5.5300 118° Southeast 501 577 35,000  Level FlightAware ADS-B
Sun 05:33:45 AM 48.6227 -5.4835 118° Southeast 484 557 35,000  Level FlightAware UK
Sun 05:34:03 AM 48.6033 -5.4278 118° Southeast 484 557 35,000  Level FlightAware UK
Sun 05:34:16 AM 48.5890 -5.3870 118° Southeast 503 579 35,000  Level FlightAware ADS-B
Sun 05:34:33 AM 48.5709 -5.3351 118° Southeast 486 559 35,000  Level FlightAware UK
Sun 05:35:00 AM 48.5410 -5.2540 118° Southeast 504 580 35,000  Level FlightAware ADS-B
Sun 05:35:15 AM 48.5251 -5.2054 118° Southeast 484 557 35,000  Level FlightAware UK
Sun 05:35:33 AM 48.5053 -5.1497 118° Southeast 484 557 35,000  Level FlightAware UK
Sun 05:35:42 AM 48.4950 -5.1240 118° Southeast 504 580 35,000  Level FlightAware ADS-B
Sun 05:35:57 AM 48.4788 -5.0754 118° Southeast 484 557 35,000  Level FlightAware UK
Sun 05:36:15 AM 48.4590 -5.0196 118° Southeast 484 557 35,000  Level FlightAware UK
Sun 05:36:26 AM 48.4470 -4.9880 118° Southeast 506 582 35,000  Level FlightAware ADS-B
Sun 05:36:45 AM 48.4257 -4.9267 118° Southeast 486 559 35,000  Level FlightAware UK
Sun 05:37:07 AM 48.4020 -4.8640 118° Southeast 505 581 35,000  Level FlightAware ADS-B
Sun 05:37:27 AM 48.3789 -4.7965 118° Southeast 486 559 35,000  Level FlightAware UK
Sun 05:37:45 AM 48.3587 -4.7409 119° Southeast 488 562 35,000  Level FlightAware UK
Sun 05:37:50 AM 48.3520 -4.7250 119° Southeast 506 582 35,000  Level FlightAware ADS-B
Sun 05:38:09 AM 48.3317 -4.6661 119° Southeast 488 562 35,000  Level FlightAware UK
Sun 05:38:27 AM 48.3116 -4.6105 119° Southeast 488 562 35,000  Level FlightAware UK
Sun 05:38:30 AM 48.3080 -4.6020 119° Southeast 505 581 35,000  Level FlightAware ADS-B
Sun 05:38:51 AM 48.2849 -4.5364 119° Southeast 486 559 35,000  Level FlightAware UK
Sun 05:39:10 AM 48.2640 -4.4820 119° Southeast 504 580 35,000  Level FlightAware ADS-B
Sun 05:39:27 AM 48.2444 -4.4259 119° Southeast 484 557 35,000  Level FlightAware UK
Sun 05:39:54 AM 48.2140 -4.3470 119° Southeast 504 580 35,000  Level FlightAware ADS-B
Sun 05:40:32 AM 48.1720 -4.2300 118° Southeast 505 581 35,000  Level FlightAware ADS-B
Sun 05:41:18 AM 48.1190 -4.0860 119° Southeast 507 583 35,000  Level FlightAware ADS-B
Sun 05:42:01 AM 48.0710 -3.9570 119° Southeast 508 585 35,000  Level FlightAware ADS-B
Sun 05:42:42 AM 48.0240 -3.8310 119° Southeast 508 585 35,000  Level FlightAware ADS-B
Sun 05:43:26 AM 47.9730 -3.6930 119° Southeast 508 585 35,000  Level FlightAware ADS-B
Sun 05:44:06 AM 47.9270 -3.5720 120° Southeast 506 582 35,000  Level FlightAware ADS-B
Sun 05:44:46 AM 47.8800 -3.4550 121° Southeast 508 585 35,000  Level FlightAware ADS-B
Sun 05:45:26 AM 47.8250 -3.3380 125° Southeast 507 583 35,000  Level FlightAware ADS-B
Sun 05:46:14 AM 47.7610 -3.2030 125° Southeast 507 583 35,000  Level FlightAware ADS-B
Sun 05:46:54 AM 47.7090 -3.0890 124° Southeast 506 582 35,000  Level FlightAware ADS-B
Sun 05:47:37 AM 47.6520 -2.9660 124° Southeast 505 581 35,000  Level FlightAware ADS-B
Sun 05:48:17 AM 47.5980 -2.8490 124° Southeast 505 581 35,000  Level FlightAware ADS-B
Sun 05:48:57 AM 47.5460 -2.7370 124° Southeast 505 581 35,000  Level FlightAware ADS-B
Sun 05:49:43 AM 47.4860 -2.6070 124° Southeast 503 579 35,000  Level FlightAware ADS-B
Sun 05:50:25 AM 47.4320 -2.4880 124° Southeast 500 575 35,000  Level FlightAware ADS-B
Sun 05:51:05 AM 47.3810 -2.3790 125° Southeast 499 574 35,000  Level FlightAware ADS-B
Sun 05:51:47 AM 47.3240 -2.2580 125° Southeast 499 574 35,000  Level FlightAware ADS-B
Sun 05:52:31 AM 47.2670 -2.1350 124° Southeast 498 573 35,000  Level FlightAware ADS-B
Sun 05:53:11 AM 47.2140 -2.0210 124° Southeast 498 573 35,000  Level FlightAware ADS-B
Sun 05:53:55 AM 47.1560 -1.8990 125° Southeast 497 572 35,000  Level FlightAware ADS-B
Sun 05:54:33 AM 47.1060 -1.7970 126° Southeast 495 570 35,000  Level FlightAware ADS-B
Sun 05:55:20 AM 47.0460 -1.6670 124° Southeast 494 568 35,000  Level FlightAware ADS-B
Sun 05:55:59 AM 46.9940 -1.5570 125° Southeast 493 567 35,000  Level FlightAware ADS-B
Sun 05:56:39 AM 46.9420 -1.4480 125° Southeast 495 570 35,000  Level FlightAware ADS-B
Sun 05:57:25 AM 46.8820 -1.3290 126° Southeast 495 570 35,000  Level FlightAware ADS-B
Sun 05:58:05 AM 46.8260 -1.2180 126° Southeast 497 572 35,000  Level FlightAware ADS-B
Sun 05:58:45 AM 46.7700 -1.1080 127° Southeast 498 573 35,000  Level FlightAware ADS-B
Sun 05:59:29 AM 46.7180 -0.9850 122° Southeast 497 572 35,000  Level FlightAware ADS-B
Sun 06:00:09 AM 46.6820 -0.8650 114° Southeast 497 572 35,000  Level FlightAware ADS-B
Sun 06:00:47 AM 46.6490 -0.7520 113° Southeast 498 573 35,000  Level FlightAware ADS-B
Sun 06:01:47 AM 46.6320 -0.6860 111° Southeast 497 572 35,000  Level FlightAware ADS-B
Sun 06:03:08 AM 46.6070 -0.5900 111° Southeast 497 572 35,000  Level FlightAware ADS-B
Sun 06:04:25 AM 46.6290 -0.6780 290° West 495 570 35,000  Level FlightAware ADS-B
Sun 06:05:07 AM 46.4200 0.0460 112° Southeast 492 566 35,000  Level FlightAware ADS-B
Sun 06:05:49 AM 46.3890 0.1550 112° Southeast 492 566 35,000  Level FlightAware ADS-B
Sun 06:06:25 AM 46.3520 0.2750 114° Southeast 489 563 35,000  Level FlightAware ADS-B
Sun 06:07:11 AM 46.3130 0.4070 113° Southeast 488 562 35,000  Level FlightAware ADS-B
Sun 06:08:10 AM 46.2630 0.5790 113° Southeast 487 560 35,000  Level FlightAware ADS-B
Sun 06:08:46 AM 46.2360 0.6710 113° Southeast 487 560 35,000  Level FlightAware ADS-B
Sun 06:11:00 AM 46.1461 1.1092 106° East  Level Estimated
Sun 06:11:32 AM 46.0790 1.1890 106° East 35,000  Level FlightAware ADS-B
Sun 06:14:00 AM 45.9779 1.6708 107° East  Level Estimated
Sun 06:14:06 AM 45.9350 1.6550 107° East 487 560 35,000  Level FlightAware ADS-B
Sun 06:14:49 AM 45.8970 1.7790 114° Southeast 485 558 35,000  Level FlightAware ADS-B
Sun 06:15:38 AM 45.8550 1.9110 115° Southeast 484 557 35,000  Level FlightAware ADS-B
Sun 06:16:28 AM 45.8040 2.0740 114° Southeast 484 557 35,000  Level FlightAware ADS-B
Sun 06:17:08 AM 45.7690 2.1860 114° Southeast 486 559 35,000  Level FlightAware ADS-B
Sun 06:17:48 AM 45.7300 2.3050 115° Southeast 485 558 35,000  Level FlightAware ADS-B
Sun 06:18:33 AM 45.6890 2.4370 114° Southeast 485 558 35,000 141 Level FlightAware ADS-B
Sun 06:19:13 AM 45.6510 2.5530 115° Southeast 486 559 35,200 506 Climbing FlightAware ADS-B
Sun 06:19:56 AM 45.6050 2.6790 118° Southeast 493 567 35,700 900 Climbing FlightAware ADS-B
Sun 06:20:53 AM 45.5450 2.8400 118° Southeast 493 567 36,700 830 Climbing FlightAware ADS-B
Sun 06:21:30 AM 45.5060 2.9470 117° Southeast 494 568 37,000 214 Climbing FlightAware ADS-B
Sun 06:22:17 AM 45.4560 3.0820 118° Southeast 494 568 37,000  Level FlightAware ADS-B
Sun 06:22:57 AM 45.4150 3.1950 117° Southeast 495 570 37,000  Level FlightAware ADS-B
Sun 06:23:37 AM 45.3710 3.3130 118° Southeast 495 570 37,000  Level FlightAware ADS-B
Sun 06:24:23 AM 45.3230 3.4420 118° Southeast 494 568 37,000  Level FlightAware ADS-B
Sun 06:25:03 AM 45.2800 3.5560 118° Southeast 494 568 37,000  Level FlightAware ADS-B
Sun 06:25:45 AM 45.2370 3.6710 118° Southeast 495 570 37,000  Level FlightAware ADS-B
Sun 06:26:29 AM 45.1860 3.8060 118° Southeast 495 570 37,000  Level FlightAware ADS-B
Sun 06:27:08 AM 45.1450 3.9140 118° Southeast 494 568 37,000  Level FlightAware ADS-B
Sun 06:27:52 AM 45.0990 4.0330 119° Southeast 493 567 37,000  Level FlightAware ADS-B
Sun 06:28:33 AM 45.0500 4.1610 118° Southeast 494 568 37,000  Level FlightAware ADS-B
Sun 06:29:15 AM 45.0050 4.2800 118° Southeast 493 567 37,000  Level FlightAware ADS-B
Sun 06:29:59 AM 44.9570 4.4050 118° Southeast 495 570 37,000  Level FlightAware ADS-B
Sun 06:30:37 AM 44.9160 4.5090 119° Southeast 497 572 37,000  Level FlightAware ADS-B
Sun 06:31:21 AM 44.8660 4.6370 119° Southeast 498 573 37,000  Level FlightAware ADS-B
Sun 06:32:05 AM 44.8170 4.7620 119° Southeast 498 573 37,000  Level FlightAware ADS-B
Sun 06:32:47 AM 44.7700 4.8810 119° Southeast 498 573 37,000  Level FlightAware ADS-B
Sun 06:33:27 AM 44.7260 4.9920 119° Southeast 498 573 37,000  Level FlightAware ADS-B
Sun 06:34:10 AM 44.6780 5.1140 119° Southeast 499 574 37,000  Level FlightAware ADS-B
Sun 06:34:51 AM 44.6320 5.2300 119° Southeast 498 573 37,000  Level FlightAware ADS-B
Sun 06:35:31 AM 44.5890 5.3400 119° Southeast 498 573 37,000  Level FlightAware ADS-B
Sun 06:36:11 AM 44.5430 5.4560 119° Southeast 498 573 37,000  Level FlightAware ADS-B
Sun 06:36:55 AM 44.4930 5.5800 119° Southeast 498 573 37,000  Level FlightAware ADS-B
Sun 06:37:37 AM 44.4470 5.6980 119° Southeast 500 575 37,000  Level FlightAware ADS-B
Sun 06:38:17 AM 44.4030 5.8080 119° Southeast 500 575 37,000  Level FlightAware ADS-B
Sun 06:39:01 AM 44.3490 5.9330 121° Southeast 499 574 37,000  Level FlightAware ADS-B
Sun 06:39:41 AM 44.2980 6.0400 124° Southeast 499 574 37,000  Level FlightAware ADS-B
Sun 06:40:25 AM 44.2410 6.1570 124° Southeast 500 575 37,000  Level FlightAware ADS-B
Sun 06:41:05 AM 44.1900 6.2670 123° Southeast 500 575 37,000  Level FlightAware ADS-B
Sun 06:41:49 AM 44.1340 6.3850 123° Southeast 499 574 37,000  Level FlightAware ADS-B
Sun 06:42:29 AM 44.0840 6.4900 124° Southeast 499 574 37,000  Level FlightAware ADS-B
Sun 06:43:09 AM 44.0340 6.5940 124° Southeast 499 574 37,000  Level FlightAware ADS-B
Sun 06:43:53 AM 43.9770 6.7140 123° Southeast 499 574 37,000  Level FlightAware ADS-B
Sun 06:44:25 AM 43.9360 6.7990 124° Southeast 499 574 37,000  Level FlightAware ADS-B
Sun 06:45:05 AM 43.8850 6.9060 123° Southeast 500 575 37,000  Level FlightAware ADS-B
Sun 06:45:47 AM 43.8300 7.0180 124° Southeast 502 578 37,000  Level FlightAware ADS-B
Sun 06:46:27 AM 43.7780 7.1240 124° Southeast 503 579 37,000  Level FlightAware ADS-B
Sun 06:47:10 AM 43.7210 7.2380 125° Southeast 504 580 37,000  Level FlightAware ADS-B
Sun 06:47:54 AM 43.6630 7.3560 124° Southeast 505 581 37,000  Level FlightAware ADS-B
Sun 06:48:34 AM 43.6100 7.4650 124° Southeast 505 581 37,000  Level FlightAware ADS-B
Sun 06:49:18 AM 43.5520 7.5810 125° Southeast 504 580 37,000  Level FlightAware ADS-B
Sun 06:49:58 AM 43.4990 7.6840 125° Southeast 501 577 37,000  Level FlightAware ADS-B
Sun 06:50:42 AM 43.4400 7.8020 125° Southeast 500 575 37,000  Level FlightAware ADS-B
Sun 06:51:22 AM 43.3890 7.9040 125° Southeast 498 573 37,000  Level FlightAware ADS-B
Sun 06:52:06 AM 43.3310 8.0180 125° Southeast 497 572 37,000  Level FlightAware ADS-B
Sun 06:52:46 AM 43.2780 8.1210 125° Southeast 495 570 37,000  Level FlightAware ADS-B
Sun 06:53:30 AM 43.2200 8.2370 124° Southeast 494 568 37,000  Level FlightAware ADS-B
Sun 06:54:12 AM 43.1640 8.3440 126° Southeast 494 568 37,000  Level FlightAware ADS-B
Sun 06:54:53 AM 43.1120 8.4470 125° Southeast 496 571 37,000  Level FlightAware ADS-B
Sun 06:55:30 AM 43.0620 8.5420 126° Southeast 497 572 37,000  Level FlightAware ADS-B
Sun 06:56:17 AM 43.0000 8.6630 125° Southeast 499 574 37,000  Level FlightAware ADS-B
Sun 06:56:57 AM 42.9470 8.7650 125° Southeast 500 575 37,000  Level FlightAware ADS-B
Sun 06:57:39 AM 42.8890 8.8760 125° Southeast 501 577 37,000  Level FlightAware ADS-B
Sun 06:58:24 AM 42.8310 8.9870 125° Southeast 503 579 37,000  Level FlightAware ADS-B
Sun 06:59:04 AM 42.7760 9.0930 125° Southeast 502 578 37,000  Level FlightAware ADS-B
Sun 06:59:45 AM 42.7200 9.1980 126° Southeast 503 579 37,000  Level FlightAware ADS-B
Sun 07:00:27 AM 42.6640 9.3030 126° Southeast 502 578 37,000  Level FlightAware ADS-B
Sun 07:01:13 AM 42.6020 9.4210 125° Southeast 504 580 37,000  Level FlightAware ADS-B
Sun 07:01:52 AM 42.5590 9.5290 118° Southeast 503 579 37,000  Level FlightAware ADS-B
Sun 07:02:34 AM 42.5300 9.6370 110° East 507 583 37,000  Level FlightAware ADS-B
Sun 07:03:17 AM 42.4830 9.7820 114° Southeast 503 579 37,000  Level FlightAware ADS-B
Sun 07:03:56 AM 42.4360 9.8790 123° Southeast 505 581 37,000  Level FlightAware ADS-B
Sun 07:04:43 AM 42.3730 10.0130 122° Southeast 508 585 37,000  Level FlightAware ADS-B
Sun 07:05:21 AM 42.3270 10.1160 121° Southeast 510 587 37,000  Level FlightAware ADS-B
Sun 07:06:06 AM 42.2750 10.2310 121° Southeast 511 588 37,000  Level FlightAware ADS-B
Sun 07:06:45 AM 42.2250 10.3430 121° Southeast 511 588 37,000  Level FlightAware ADS-B
Sun 07:07:31 AM 42.1660 10.4660 123° Southeast 512 589 37,000  Level FlightAware ADS-B
Sun 07:08:07 AM 42.1190 10.5620 123° Southeast 512 589 37,000  Level FlightAware ADS-B
Sun 07:08:51 AM 42.0610 10.6790 124° Southeast 513 590 37,000  Level FlightAware ADS-B
Sun 07:09:47 AM 41.9930 10.8210 123° Southeast 510 587 37,000  Level FlightAware ADS-B
Sun 07:10:29 AM 41.9350 10.9380 124° Southeast 511 588 37,000  Level FlightAware ADS-B
Sun 07:11:14 AM 41.8770 11.0590 123° Southeast 518 596 37,000  Level FlightAware ADS-B
Sun 07:11:54 AM 41.8370 11.1580 118° Southeast 518 596 37,000  Level FlightAware ADS-B
Sun 07:12:34 AM 41.7880 11.2870 117° Southeast 519 597 37,000  Level FlightAware ADS-B
Sun 07:13:14 AM 41.7450 11.4020 117° Southeast 514 592 37,000  Level FlightAware ADS-B
Sun 07:13:59 AM 41.6980 11.5280 117° Southeast 515 593 37,000  Level FlightAware ADS-B
Sun 07:14:39 AM 41.6540 11.6450 117° Southeast 515 593 37,000  Level FlightAware ADS-B
Sun 07:15:19 AM 41.6100 11.7590 117° Southeast 516 594 37,000  Level FlightAware ADS-B
Sun 07:16:09 AM 41.5550 11.9010 117° Southeast 516 594 37,000  Level FlightAware ADS-B
Sun 07:16:49 AM 41.5110 12.0150 117° Southeast 514 592 37,000  Level FlightAware ADS-B
Sun 07:17:29 AM 41.4670 12.1280 117° Southeast 513 590 37,000  Level FlightAware ADS-B
Sun 07:18:14 AM 41.4180 12.2560 117° Southeast 512 589 37,000  Level FlightAware ADS-B
Sun 07:19:08 AM 41.3610 12.4020 117° Southeast 513 590 37,000  Level FlightAware ADS-B
Sun 07:19:51 AM 41.3110 12.5290 118° Southeast 517 595 37,000  Level FlightAware ADS-B
Sun 07:20:46 AM 41.2520 12.6810 117° Southeast 517 595 37,000  Level FlightAware ADS-B
Sun 07:21:16 AM 41.2180 12.7680 117° Southeast 517 595 37,000  Level FlightAware ADS-B
Sun 07:21:56 AM 41.1750 12.8770 118° Southeast 517 595 37,000  Level FlightAware ADS-B
Sun 07:22:36 AM 41.1300 12.9890 118° Southeast 519 597 37,000  Level FlightAware ADS-B
Sun 07:23:21 AM 41.0780 13.1210 118° Southeast 521 600 37,000  Level FlightAware ADS-B
Sun 07:24:01 AM 41.0340 13.2310 118° Southeast 522 601 37,000  Level FlightAware ADS-B
Sun 07:24:41 AM 40.9870 13.3470 118° Southeast 524 603 37,000  Level FlightAware ADS-B
Sun 07:25:26 AM 40.9360 13.4740 118° Southeast 526 605 37,000  Level FlightAware ADS-B
Sun 07:26:06 AM 40.8910 13.5840 118° Southeast 527 606 37,000  Level FlightAware ADS-B
Sun 07:26:51 AM 40.8420 13.7060 118° Southeast 529 609 37,000  Level FlightAware ADS-B
Sun 07:27:32 AM 40.7900 13.8300 119° Southeast 527 606 37,000  Level FlightAware ADS-B
Sun 07:28:16 AM 40.7390 13.9580 118° Southeast 529 609 37,000  Level FlightAware ADS-B
Sun 07:28:56 AM 40.6920 14.0680 119° Southeast 529 609 37,000  Level FlightAware ADS-B
Sun 07:29:40 AM 40.6400 14.1960 118° Southeast 528 608 37,000  Level FlightAware ADS-B
Sun 07:30:19 AM 40.5950 14.3020 119° Southeast 528 608 37,000  Level FlightAware ADS-B
Sun 07:31:04 AM 40.5340 14.4220 124° Southeast 528 608 37,000  Level FlightAware ADS-B
Sun 07:31:42 AM 40.4850 14.5260 122° Southeast 532 612 37,000  Level FlightAware ADS-B
Sun 07:32:28 AM 40.4300 14.6560 119° Southeast 533 613 37,000  Level FlightAware ADS-B
Sun 07:33:08 AM 40.3830 14.7700 118° Southeast 536 617 37,000  Level FlightAware ADS-B
Sun 07:33:52 AM 40.3310 14.8990 118° Southeast 537 618 37,000  Level FlightAware ADS-B
Sun 07:34:31 AM 40.2870 15.0050 119° Southeast 539 620 37,000  Level FlightAware ADS-B
Sun 07:35:14 AM 40.2390 15.1200 119° Southeast 540 621 37,000  Level FlightAware ADS-B
Sun 07:35:54 AM 40.1860 15.2490 118° Southeast 540 621 37,000  Level FlightAware ADS-B
Sun 07:36:40 AM 40.1310 15.3810 119° Southeast 541 623 37,000  Level FlightAware ADS-B
Sun 07:37:22 AM 40.0800 15.5020 119° Southeast 541 623 37,000  Level FlightAware ADS-B
Sun 07:38:02 AM 40.0330 15.6130 119° Southeast 541 623 37,000  Level FlightAware ADS-B
Sun 07:38:44 AM 39.9830 15.7330 119° Southeast 541 623 37,000  Level FlightAware ADS-B
Sun 07:39:28 AM 39.9290 15.8620 119° Southeast 541 623 37,000  Level FlightAware ADS-B
Sun 07:40:08 AM 39.8810 15.9730 119° Southeast 541 623 37,000  Level FlightAware ADS-B
Sun 07:40:46 AM 39.8350 16.0820 119° Southeast 542 624 37,000  Level FlightAware ADS-B
Sun 07:41:35 AM 39.7780 16.2150 119° Southeast 543 625 37,000  Level FlightAware ADS-B
Sun 07:42:16 AM 39.7240 16.3380 120° Southeast 544 626 37,000  Level FlightAware ADS-B
Sun 07:42:56 AM 39.6750 16.4520 119° Southeast 546 628 37,000  Level FlightAware ADS-B
Sun 07:43:38 AM 39.6220 16.5720 120° Southeast 547 629 37,000  Level FlightAware ADS-B
Sun 07:44:22 AM 39.5670 16.6970 120° Southeast 547 629 37,000  Level FlightAware ADS-B
Sun 07:45:02 AM 39.5180 16.8080 120° Southeast 547 629 37,000  Level FlightAware ADS-B
Sun 07:45:46 AM 39.4610 16.9370 120° Southeast 549 632 37,000  Level FlightAware ADS-B
Sun 07:46:26 AM 39.4110 17.0500 120° Southeast 548 631 37,000  Level FlightAware ADS-B
Sun 07:47:06 AM 39.3610 17.1640 120° Southeast 548 631 37,000  Level FlightAware ADS-B
Sun 07:47:51 AM 39.3050 17.2880 120° Southeast 549 632 37,000  Level FlightAware ADS-B
Sun 07:48:31 AM 39.2530 17.4050 120° Southeast 550 633 37,000  Level FlightAware ADS-B
Sun 07:49:11 AM 39.2050 17.5130 120° Southeast 552 635 37,000  Level FlightAware ADS-B
Sun 07:49:50 AM 39.1540 17.6270 120° Southeast 553 636 37,000  Level FlightAware ADS-B
Sun 07:50:37 AM 39.1100 17.7210 121° Southeast 553 636 37,000  Level FlightAware ADS-B
Sun 07:51:17 AM 39.0600 17.8320 120° Southeast 553 636 37,000  Level FlightAware ADS-B
Sun 07:52:00 AM 38.9830 18.0020 120° Southeast 554 638 37,000  Level FlightAware ADS-B
Sun 07:52:41 AM 38.9330 18.1100 121° Southeast 554 638 37,000  Level FlightAware ADS-B
Sun 07:53:24 AM 38.8930 18.1970 121° Southeast 554 638 37,000  Level FlightAware ADS-B
Sun 07:54:05 AM 38.8410 18.3080 121° Southeast 554 638 37,000  Level FlightAware ADS-B
Sun 07:55:00 AM 38.7640 18.4740 121° Southeast 553 636 37,000  Level FlightAware ADS-B
Sun 07:55:42 AM 38.7090 18.5940 120° Southeast 552 635 37,000  Level FlightAware ADS-B
Sun 07:56:26 AM 38.6440 18.7540 117° Southeast 556 640 37,000  Level FlightAware ADS-B
Sun 07:57:07 AM 38.6040 18.8790 112° Southeast 559 643 37,000  Level FlightAware ADS-B
Sun 07:57:52 AM 38.5650 19.0160 110° East 561 646 37,000  Level FlightAware ADS-B
Sun 07:58:36 AM 38.5240 19.1560 110° East 559 643 37,000  Level FlightAware ADS-B
Sun 07:59:17 AM 38.4860 19.2790 112° Southeast 560 644 37,000  Level FlightAware ADS-B
Sun 08:00:01 AM 38.4440 19.4180 111° Southeast 559 643 37,000  Level FlightAware ADS-B
Sun 08:00:37 AM 38.4100 19.5260 112° Southeast 560 644 37,000  Level FlightAware ADS-B
Sun 08:01:21 AM 38.3680 19.6650 111° Southeast 561 646 37,000  Level FlightAware ADS-B
Sun 08:02:01 AM 38.3300 19.7860 112° Southeast 563 648 37,000  Level FlightAware ADS-B
Sun 08:02:47 AM 38.2860 19.9290 111° Southeast 569 655 37,000  Level FlightAware ADS-B
Sun 08:03:26 AM 38.2480 20.0540 111° Southeast 570 656 37,000  Level FlightAware ADS-B
Sun 08:04:12 AM 38.2040 20.1940 112° Southeast 571 657 37,000  Level FlightAware ADS-B
Sun 08:04:51 AM 38.1650 20.3190 112° Southeast 572 658 37,000  Level FlightAware ADS-B
Sun 08:05:26 AM 38.1300 20.4280 112° Southeast 572 658 37,000  Level FlightAware ADS-B
Sun 08:06:02 AM 38.0950 20.5400 112° Southeast 572 658 37,000  Level FlightAware ADS-B
Sun 08:06:44 AM 38.0540 20.6710 112° Southeast 573 659 37,000  Level FlightAware ADS-B
Sun 08:07:22 AM 38.0160 20.7890 112° Southeast 573 659 37,000  Level FlightAware ADS-B
Sun 08:08:08 AM 37.9700 20.9360 112° Southeast 573 659 37,000 273 Level FlightAware ADS-B
Sun 08:08:50 AM 37.9280 21.0630 113° Southeast 576 663 37,400 714 Climbing FlightAware ADS-B
Sun 08:09:32 AM 37.8860 21.1940 112° Southeast 575 662 38,000 419 Climbing FlightAware ADS-B
Sun 08:10:16 AM 37.8420 21.3310 112° Southeast 572 658 38,000  Level FlightAware ADS-B
Sun 08:10:54 AM 37.8030 21.4510 112° Southeast 570 656 38,000  Level FlightAware ADS-B
Sun 08:11:38 AM 37.7590 21.5870 112° Southeast 569 655 38,000  Level FlightAware ADS-B
Sun 08:12:20 AM 37.7180 21.7090 113° Southeast 568 654 38,000  Level FlightAware ADS-B
Sun 08:13:04 AM 37.6720 21.8500 112° Southeast 567 652 38,000  Level FlightAware ADS-B
Sun 08:13:44 AM 37.6330 21.9660 113° Southeast 566 651 38,000  Level FlightAware ADS-B
Sun 08:14:28 AM 37.5880 22.1020 113° Southeast 560 644 38,000  Level FlightAware ADS-B
Sun 08:15:08 AM 37.5470 22.2250 113° Southeast 559 643 38,000  Level FlightAware ADS-B
Sun 08:15:52 AM 37.5030 22.3570 113° Southeast 562 647 38,000  Level FlightAware ADS-B
Sun 08:16:32 AM 37.4630 22.4750 113° Southeast 561 646 38,000  Level FlightAware ADS-B
Sun 08:17:16 AM 37.4170 22.6090 113° Southeast 560 644 38,000 -209 Level FlightAware ADS-B
Sun 08:17:58 AM 37.3760 22.7320 113° Southeast 560 644 37,700 -732 Descending FlightAware ADS-B
Sun 08:18:38 AM 37.3340 22.8550 113° Southeast 571 657 37,000 -500 Descending FlightAware ADS-B
Sun 08:19:22 AM 37.2880 22.9860 114° Southeast 560 644 37,000  Level FlightAware ADS-B
Sun 08:20:04 AM 37.2450 23.1130 113° Southeast 554 638 37,000  Level FlightAware ADS-B
Sun 08:20:46 AM 37.2030 23.2340 114° Southeast 553 636 37,000  Level FlightAware ADS-B
Sun 08:21:26 AM 37.1620 23.3550 113° Southeast 554 638 37,000  Level FlightAware ADS-B
Sun 08:22:10 AM 37.1160 23.4840 114° Southeast 556 640 37,000  Level FlightAware ADS-B
Sun 08:22:54 AM 37.0710 23.6110 114° Southeast 558 642 37,000  Level FlightAware ADS-B
Sun 08:23:34 AM 37.0300 23.7300 113° Southeast 562 647 37,000  Level FlightAware ADS-B
Sun 08:24:16 AM 36.9860 23.8550 114° Southeast 564 649 37,000  Level FlightAware ADS-B
Sun 08:24:58 AM 36.9420 23.9770 114° Southeast 564 649 37,000  Level FlightAware ADS-B
Sun 08:25:56 AM 36.8800 24.1500 114° Southeast 564 649 37,000  Level FlightAware ADS-B
Sun 08:26:36 AM 36.8360 24.2750 114° Southeast 564 649 37,000  Level FlightAware ADS-B
Sun 08:27:18 AM 36.8000 24.3730 115° Southeast 565 650 37,000  Level FlightAware ADS-B
Sun 08:28:02 AM 36.7450 24.5280 114° Southeast 568 654 37,000  Level FlightAware ADS-B
Sun 08:28:44 AM 36.6980 24.6570 114° Southeast 571 657 37,000  Level FlightAware ADS-B
Sun 08:29:22 AM 36.6570 24.7670 115° Southeast 571 657 37,000  Level FlightAware ADS-B
Sun 08:30:06 AM 36.6100 24.8990 114° Southeast 573 659 37,000  Level FlightAware ADS-B
Sun 08:30:32 AM 36.5800 24.9770 116° Southeast 573 659 37,000  Level FlightAware ADS-B
Sun 08:31:08 AM 36.5400 25.0880 114° Southeast 573 659 37,000  Level FlightAware ADS-B
Sun 08:31:48 AM 36.4960 25.2080 114° Southeast 575 662 37,000  Level FlightAware ADS-B
Sun 08:32:32 AM 36.4520 25.3250 115° Southeast 577 664 37,000  Level FlightAware ADS-B
Sun 08:33:13 AM 36.4020 25.4600 115° Southeast 575 662 37,000  Level FlightAware ADS-B
Sun 08:33:53 AM 36.3580 25.5800 114° Southeast 575 662 37,000  Level FlightAware ADS-B
Sun 08:34:38 AM 36.3080 25.7110 115° Southeast 574 661 37,000  Level FlightAware ADS-B
Sun 08:35:23 AM 36.2580 25.8450 115° Southeast 573 659 37,000  Level FlightAware ADS-B
Sun 08:36:03 AM 36.2130 25.9630 115° Southeast 573 659 37,000  Level FlightAware ADS-B
Sun 08:36:44 AM 36.1670 26.0850 115° Southeast 571 657 37,000  Level FlightAware ADS-B
Sun 08:37:23 AM 36.1220 26.2000 116° Southeast 571 657 37,000  Level FlightAware ADS-B
Sun 08:38:09 AM 36.0710 26.3330 115° Southeast 573 659 37,000  Level FlightAware ADS-B
Sun 08:38:52 AM 36.0310 26.4390 115° Southeast 572 658 37,000  Level FlightAware ADS-B
Sun 08:39:33 AM 35.9840 26.5600 116° Southeast 573 659 37,000  Level FlightAware ADS-B
Sun 08:40:14 AM 35.9420 26.6690 115° Southeast 571 657 37,000  Level FlightAware ADS-B
Sun 08:40:54 AM 35.8920 26.7980 116° Southeast 569 655 37,000  Level FlightAware ADS-B
Sun 08:41:35 AM 35.8450 26.9180 116° Southeast 568 654 37,000  Level FlightAware ADS-B
Sun 08:42:15 AM 35.7980 27.0380 116° Southeast 569 655 37,000  Level FlightAware ADS-B
Sun 08:43:04 AM 35.7430 27.1810 115° Southeast 569 655 37,000  Level FlightAware ADS-B
Sun 08:44:28 AM 35.6380 27.4450 116° Southeast 564 649 37,000  Level FlightAware ADS-B
Sun 08:45:09 AM 35.5910 27.5620 116° Southeast 561 646 37,000  Level FlightAware ADS-B
Sun 08:45:53 AM 35.5500 27.6660 116° Southeast 561 646 37,000  Level FlightAware ADS-B
Sun 08:46:29 AM 35.5150 27.7540 116° Southeast 561 646 37,000  Level FlightAware ADS-B
Sun 08:47:03 AM 35.4820 27.8370 116° Southeast 561 646 37,000  Level FlightAware ADS-B
Sun 08:48:15 AM 35.3770 28.0930 117° Southeast 557 641 37,000  Level FlightAware ADS-B
Sun 08:48:59 AM 35.3260 28.2200 116° Southeast 556 640 37,000  Level FlightAware ADS-B
Sun 08:49:43 AM 35.2770 28.3410 116° Southeast 556 640 37,000  Level FlightAware ADS-B
Sun 08:50:27 AM 35.2260 28.4680 116° Southeast 556 640 37,000  Level FlightAware ADS-B
Sun 08:51:03 AM 35.1850 28.5660 117° Southeast 554 638 37,000  Level FlightAware ADS-B
Sun 08:51:47 AM 35.1340 28.6920 116° Southeast 554 638 37,000  Level FlightAware ADS-B
Sun 08:52:28 AM 35.1020 28.7670 118° Southeast 552 635 37,000  Level FlightAware ADS-B
Sun 08:53:11 AM 35.0370 28.9230 117° Southeast 552 635 37,000  Level FlightAware ADS-B
Sun 08:53:53 AM 34.9880 29.0420 117° Southeast 551 634 37,000  Level FlightAware ADS-B
Sun 08:54:35 AM 34.9400 29.1580 117° Southeast 550 633 37,000  Level FlightAware ADS-B
Sun 08:55:17 AM 34.8920 29.2710 117° Southeast 548 631 37,000  Level FlightAware ADS-B
Sun 08:55:58 AM 34.8470 29.3780 117° Southeast 544 626 37,000  Level FlightAware ADS-B
Sun 08:56:53 AM 34.7830 29.5310 117° Southeast 542 624 37,000  Level FlightAware ADS-B
Sun 08:57:34 AM 34.7350 29.6460 117° Southeast 542 624 37,000  Level FlightAware ADS-B
Sun 08:58:19 AM 34.6840 29.7660 117° Southeast 543 625 37,000  Level FlightAware ADS-B
Sun 08:59:00 AM 34.6380 29.8700 118° Southeast 544 626 37,000  Level FlightAware ADS-B
Sun 08:59:43 AM 34.5950 29.9780 116° Southeast 545 627 37,000 -625 Level FlightAware ADS-B
Sun 09:00:36 AM 34.5180 30.1370 120° Southeast 550 633 36,000 -1,212 Descending FlightAware ADS-B
Sun 09:01:22 AM 34.4590 30.2590 120° Southeast 545 627 35,000 -1,256 Descending FlightAware ADS-B
Sun 09:02:02 AM 34.4060 30.3680 120° Southeast 549 632 34,200 -1,129 Descending FlightAware ADS-B
Sun 09:02:47 AM 34.3490 30.4840 121° Southeast 548 631 33,400 -837 Descending FlightAware ADS-B
Sun 09:03:28 AM 34.2960 30.5920 121° Southeast 545 627 33,000 -282 Descending FlightAware ADS-B
Sun 09:04:12 AM 34.2400 30.7070 120° Southeast 542 624 33,000  Level FlightAware ADS-B
Sun 09:04:48 AM 34.1950 30.8010 120° Southeast 542 624 33,000  Level FlightAware ADS-B
Sun 09:05:33 AM 34.1360 30.9180 121° Southeast 543 625 33,000  Level FlightAware ADS-B
Sun 09:06:18 AM 34.0790 31.0360 120° Southeast 544 626 33,000  Level FlightAware ADS-B
Sun 09:06:58 AM 34.0310 31.1350 120° Southeast 545 627 33,000  Level FlightAware ADS-B
Sun 09:07:38 AM 33.9760 31.2450 121° Southeast 543 625 33,000  Level FlightAware ADS-B
Sun 09:08:19 AM 33.9230 31.3520 121° Southeast 545 627 33,000  Level FlightAware ADS-B
Sun 09:09:03 AM 33.8650 31.4680 121° Southeast 546 628 33,000  Level FlightAware ADS-B
Sun 09:09:45 AM 33.8100 31.5780 121° Southeast 548 631 33,000  Level FlightAware ADS-B
Sun 09:10:29 AM 33.7520 31.6940 121° Southeast 548 631 33,000  Level FlightAware ADS-B
Sun 09:10:55 AM 33.7180 31.7620 121° Southeast 548 631 33,000  Level FlightAware ADS-B
Sun 09:11:36 AM 33.6670 31.8650 121° Southeast 547 629 33,000  Level FlightAware ADS-B
Sun 09:12:19 AM 33.6070 31.9820 122° Southeast 545 627 33,000  Level FlightAware ADS-B
Sun 09:12:59 AM 33.5550 32.0830 122° Southeast 544 626 33,000  Level FlightAware ADS-B
Sun 09:13:45 AM 33.4940 32.2020 122° Southeast 542 624 33,000  Level FlightAware ADS-B
Sun 09:14:26 AM 33.4440 32.3000 121° Southeast 542 624 33,000  Level FlightAware ADS-B
Sun 09:14:50 AM 33.4080 32.3730 121° Southeast 541 623 33,000  Level FlightAware ADS-B
Sun 09:15:36 AM 33.3490 32.4880 122° Southeast 540 621 33,000  Level FlightAware ADS-B
Sun 09:16:16 AM 33.2990 32.5860 121° Southeast 544 626 33,000  Level FlightAware ADS-B
Sun 09:16:57 AM 33.2400 32.6990 122° Southeast 545 627 33,000 -404 Level FlightAware ADS-B
Sun 09:17:45 AM 33.1750 32.8240 122° Southeast 543 625 32,400 -1,364 Descending FlightAware ADS-B
Sun 09:18:25 AM 33.1220 32.9250 122° Southeast 534 615 31,000 -2,211 Descending FlightAware ADS-B
Sun 09:19:01 AM 33.0780 33.0120 121° Southeast 526 605 29,600 -1,429 Descending FlightAware ADS-B
Sun 09:19:49 AM 33.0200 33.1290 121° Southeast 508 585 29,000 -396 Descending FlightAware ADS-B
Sun 09:20:32 AM 32.9650 33.2340 122° Southeast 511 588 29,000 -1,139 Level FlightAware ADS-B
Sun 09:21:08 AM 32.9200 33.3230 121° Southeast 510 587 27,500 -3,600 Descending FlightAware ADS-B
Sun 09:21:57 AM 32.8590 33.4400 122° Southeast 524 603 23,900 -3,586 Descending FlightAware ADS-B
Sun 09:22:35 AM 32.8130 33.5320 121° Southeast 504 580 22,300 -2,148 Descending FlightAware ADS-B
Sun 09:23:18 AM 32.7600 33.6340 122° Southeast 489 563 21,000 -907 Descending FlightAware ADS-B
Sun 09:24:01 AM 32.7100 33.7300 122° Southeast 486 559 21,000 -1,553 Level FlightAware ADS-B
Sun 09:24:43 AM 32.6610 33.8240 122° Southeast 481 554 18,800 -3,231 Descending FlightAware ADS-B
Sun 09:25:19 AM 32.6180 33.9050 122° Southeast 480 552 16,800 -3,143 Descending FlightAware ADS-B
Sun 09:26:07 AM 32.5630 34.0110 122° Southeast 468 539 14,400 -2,764 Descending FlightAware ADS-B
Sun 09:26:48 AM 32.5160 34.1010 122° Southeast 447 514 12,700 -2,500 Descending FlightAware ADS-B
Sun 09:27:31 AM 32.4660 34.1820 126° Southeast 424 488 10,900 -2,522 Descending FlightAware ADS-B
Sun 09:27:57 AM 32.4300 34.2260 134° Southeast 415 478 9,800 -2,160 Descending FlightAware ADS-B
Sun 09:28:21 AM 32.3980 34.2630 136° Southeast 398 458 9,100 -1,364 Descending FlightAware ADS-B
Sun 09:28:41 AM 32.3740 34.2910 135° Southeast 381 438 8,800 -913 Descending FlightAware ADS-B
Sun 09:29:07 AM 32.3420 34.3290 135° Southeast 357 411 8,400 -484 Descending FlightAware ADS-B
Sun 09:29:43 AM 32.3050 34.3730 135° Southeast 357 411 8,300 -103 Descending FlightAware ADS-B
Sun 09:30:05 AM 32.2830 34.3990 135° Southeast 357 411 8,300  Level FlightAware ADS-B
Sun 09:31:02 AM 32.2260 34.4660 135° Southeast 357 411 8,300  Level FlightAware ADS-B
Sun 09:31:14 AM 32.2140 34.4800 135° Southeast 357 411 8,300  Level FlightAware ADS-B
Sun 09:33:00 AM 32.0732 34.7254 115° Southeast  Level FlightAware Approximate
Sun 09:34:00 AM 32.0000 34.8667 125° Southeast  Level FlightAware Approximate
Sun 09:35:00 AM 32.0095 34.8769 125° Southeast  Level Estimated
Sun 09:36:00 AM 32.0095 34.8769 125° Southeast  Level Estimated
Sun 09:37:00 AM 32.0095 34.8769 125° Southeast  Level Estimated
Sun 09:38:00 AM 32.0095 34.8769 125° Southeast  Level Estimated
Sun 09:39:00 AM 32.0095 34.8769 125° Southeast  Level Estimated
Sun 09:40:00 AM 32.0095 34.8769 125° Southeast  Level Estimated
Sun 09:41:00 AM 32.0095 34.8769 125° Southeast  Level Estimated

Login

Don't have an account? Register now (free) for customized features, flight alerts, and more!